ΕΜΥ, Εθνική Μετεωρολογική Υπηρεσία - Δελτία Καιρού, Προγνώσεις

ΑΕΡΟΝΑΥΤΙΛΙΑ

GREEK AIRPORTS CODES

TAF LGNX 200700Z 2009/2018 28012KT 9999 FEW018=

EUROPEAN AIRPORTS CODES

LFPO 201230Z 10007KT 070V130 CAVOK 17/03 Q1016 NOSIG=